Airport ICAO


17:40 UTC

12°C

Clear skies


An affordable passengers' Moving Map for your aircraft. Made for the iPad and the iPhone
More information here

LFMD Mandelieu


Cannes FRANCE   VFR CAVOK


METAR LFMD 171730Z AUTO 29014KT 260V340 CAVOK 12/M13 Q1013 TEMPO 27030G40KT 0h10min

TAF LFMD 171400Z 1715/1815 30020G30KT CAVOK PROB40 TEMPO 1715/1801 27030G40KT BECMG 1723/1801 28010KT 3h40min





NOTAMS

OPEN